createdAt,value
2018-06-15T00:01:11.690Z,16.90
2018-06-15T00:03:44.087Z,16.90
2018-06-15T00:06:16.456Z,16.90
2018-06-15T00:08:49.149Z,16.90
2018-06-15T00:11:21.785Z,16.90
2018-06-15T00:13:54.481Z,16.90
2018-06-15T00:16:27.233Z,16.90
2018-06-15T00:18:59.633Z,16.90
2018-06-15T00:21:32.014Z,16.90
2018-06-15T00:24:04.437Z,16.90
2018-06-15T00:26:37.125Z,16.90
2018-06-15T00:29:09.559Z,16.90
2018-06-15T00:31:42.230Z,16.90
2018-06-15T00:34:14.657Z,16.90
2018-06-15T00:36:47.072Z,16.90
2018-06-15T00:39:19.485Z,16.90
2018-06-15T00:41:51.873Z,16.90
2018-06-15T00:44:24.557Z,16.90
2018-06-15T00:46:56.953Z,16.90
2018-06-15T00:49:29.350Z,16.90
2018-06-15T00:52:01.792Z,16.90
2018-06-15T00:54:34.178Z,16.90
2018-06-15T00:57:17.870Z,16.90
2018-06-15T00:59:50.605Z,16.90
2018-06-15T01:02:23.285Z,16.90
2018-06-15T01:04:55.695Z,16.90
2018-06-15T01:07:28.402Z,16.80
2018-06-15T01:10:01.117Z,16.80
2018-06-15T01:12:33.517Z,16.80
2018-06-15T01:15:05.910Z,16.80
2018-06-15T01:17:38.312Z,16.80
2018-06-15T01:20:11.113Z,16.80
2018-06-15T01:22:43.489Z,16.80
2018-06-15T01:25:15.889Z,16.80
2018-06-15T01:27:48.266Z,16.80
2018-06-15T01:30:20.663Z,16.80
2018-06-15T01:32:53.060Z,16.80
2018-06-15T01:35:25.457Z,16.80
2018-06-15T01:37:57.837Z,16.80
2018-06-15T01:40:30.881Z,16.80
2018-06-15T01:43:03.269Z,16.80
2018-06-15T01:45:35.670Z,16.80
2018-06-15T01:48:08.637Z,16.70
2018-06-15T01:50:41.317Z,16.70
2018-06-15T01:53:13.994Z,16.70
2018-06-15T01:55:46.656Z,16.70
2018-06-15T01:58:19.249Z,16.70
2018-06-15T02:00:51.873Z,16.70
2018-06-15T02:03:24.255Z,16.70
2018-06-15T02:05:56.633Z,16.70
2018-06-15T02:08:29.347Z,16.70
2018-06-15T02:11:01.750Z,16.70
2018-06-15T02:13:34.438Z,16.70
2018-06-15T02:16:07.410Z,16.70
2018-06-15T02:18:40.075Z,16.70
2018-06-15T02:21:12.824Z,16.70
2018-06-15T02:23:45.489Z,16.70
2018-06-15T02:26:17.954Z,16.70
2018-06-15T02:28:50.646Z,16.70
2018-06-15T02:31:23.053Z,16.70
2018-06-15T02:33:55.794Z,16.80
2018-06-15T02:36:28.222Z,16.80
2018-06-15T02:39:00.608Z,16.80
2018-06-15T02:41:33.022Z,16.80
2018-06-15T02:44:05.973Z,16.80
2018-06-15T02:46:38.381Z,16.80
2018-06-15T02:49:10.878Z,16.80
2018-06-15T02:51:43.275Z,16.80
2018-06-15T02:54:15.742Z,16.80
2018-06-15T02:56:48.493Z,16.80
2018-06-15T02:59:21.125Z,16.80
2018-06-15T03:01:53.543Z,16.80
2018-06-15T03:04:26.233Z,16.80
2018-06-15T03:06:58.645Z,16.80
2018-06-15T03:09:31.019Z,16.80
2018-06-15T03:12:03.713Z,16.80
2018-06-15T03:14:36.106Z,16.80
2018-06-15T03:17:08.810Z,16.80
2018-06-15T03:19:41.432Z,16.80
2018-06-15T03:22:14.145Z,16.80
2018-06-15T03:24:46.535Z,16.80
2018-06-15T03:27:18.941Z,16.80
2018-06-15T03:29:51.572Z,16.80
2018-06-15T03:32:23.966Z,16.70
2018-06-15T03:34:56.347Z,16.70
2018-06-15T03:37:28.789Z,16.70
2018-06-15T03:40:01.192Z,16.70
2018-06-15T03:42:33.610Z,16.70
2018-06-15T03:45:06.028Z,16.70
2018-06-15T03:47:38.405Z,16.70
2018-06-15T03:50:10.818Z,16.70
2018-06-15T03:52:43.511Z,16.70
2018-06-15T03:55:15.915Z,16.70
2018-06-15T03:57:48.600Z,16.70
2018-06-15T04:00:21.024Z,16.70
2018-06-15T04:02:53.405Z,16.70
2018-06-15T04:05:25.798Z,16.70
2018-06-15T04:07:58.188Z,16.80
2018-06-15T04:10:30.826Z,16.80
2018-06-15T04:13:03.786Z,16.80
2018-06-15T04:15:36.426Z,16.80
2018-06-15T04:18:08.813Z,16.80
2018-06-15T04:20:41.246Z,16.90
2018-06-15T04:23:13.909Z,16.90
2018-06-15T04:25:46.590Z,17.00
2018-06-15T04:28:19.026Z,17.00
2018-06-15T04:30:51.461Z,17.00
2018-06-15T04:33:23.946Z,17.10
2018-06-15T04:35:56.347Z,17.20
2018-06-15T04:38:28.722Z,17.30
2018-06-15T04:41:01.375Z,17.40
2018-06-15T04:43:33.754Z,17.50
2018-06-15T04:46:06.193Z,17.60
2018-06-15T04:48:38.618Z,17.70
2018-06-15T04:51:11.029Z,17.80
2018-06-15T04:53:43.709Z,17.90
2018-06-15T04:56:16.190Z,18.00
2018-06-15T04:58:48.581Z,18.10
2018-06-15T05:01:20.991Z,18.10
2018-06-15T05:03:53.687Z,18.10
2018-06-15T05:06:26.318Z,18.10
2018-06-15T05:08:58.954Z,18.10
2018-06-15T05:11:31.358Z,18.00
2018-06-15T05:14:03.769Z,18.00
2018-06-15T05:16:36.173Z,17.90
2018-06-15T05:19:08.891Z,17.90
2018-06-15T05:21:41.534Z,17.90
2018-06-15T05:24:14.190Z,17.90
2018-06-15T05:26:46.618Z,18.00
2018-06-15T05:29:18.999Z,18.00
2018-06-15T05:31:51.398Z,18.00
2018-06-15T05:34:23.810Z,17.90
2018-06-15T05:36:56.210Z,18.00
2018-06-15T05:39:29.195Z,18.00
2018-06-15T05:42:01.636Z,18.10
2018-06-15T05:44:34.037Z,18.10
2018-06-15T05:49:38.780Z,18.30
2018-06-15T05:52:11.184Z,18.40
2018-06-15T05:54:43.581Z,18.60
2018-06-15T05:57:16.003Z,18.70
2018-06-15T05:59:48.681Z,18.80
2018-06-15T06:02:21.096Z,19.00
2018-06-15T06:04:53.487Z,19.10
2018-06-15T06:07:26.166Z,19.20
2018-06-15T06:09:58.675Z,19.20
2018-06-15T06:12:31.085Z,19.30
2018-06-15T06:15:03.796Z,19.30
2018-06-15T06:17:36.207Z,19.20
2018-06-15T06:20:08.779Z,19.20
2018-06-15T06:22:41.197Z,19.20
2018-06-15T06:25:13.590Z,19.30
2018-06-15T06:27:46.095Z,19.30
2018-06-15T06:30:18.477Z,19.40
2018-06-15T06:32:51.454Z,19.80
2018-06-15T06:35:24.081Z,20.40
2018-06-15T06:37:56.820Z,21.30
2018-06-15T06:40:29.458Z,22.80
2018-06-15T06:43:01.853Z,24.40
2018-06-15T06:45:34.242Z,24.90
2018-06-15T06:48:06.808Z,25.10
2018-06-15T06:50:39.546Z,25.00
2018-06-15T06:53:11.873Z,24.70
2018-06-15T06:55:44.335Z,24.30
2018-06-15T06:58:16.750Z,24.10
2018-06-15T07:00:49.474Z,23.90
2018-06-15T07:03:21.884Z,23.70
2018-06-15T07:05:54.279Z,23.80
2018-06-15T07:08:26.677Z,23.80
2018-06-15T07:10:59.188Z,24.50
2018-06-15T07:13:31.867Z,24.10
2018-06-15T07:16:04.580Z,23.60
2018-06-15T07:18:37.280Z,23.60
2018-06-15T07:21:09.669Z,23.30
2018-06-15T07:23:42.383Z,23.00
2018-06-15T07:26:15.094Z,22.70
2018-06-15T07:28:47.505Z,22.40
2018-06-15T07:31:19.909Z,22.20
2018-06-15T07:33:52.325Z,22.10
2018-06-15T07:36:25.052Z,22.90
2018-06-15T07:38:57.453Z,23.30
2018-06-15T07:41:30.094Z,24.00
2018-06-15T07:44:02.498Z,24.50
2018-06-15T07:46:34.897Z,24.60
2018-06-15T07:49:07.602Z,24.60
2018-06-15T07:51:40.262Z,24.90
2018-06-15T07:54:12.961Z,25.20
2018-06-15T07:56:45.345Z,25.30
2018-06-15T07:59:17.737Z,25.60
2018-06-15T08:01:50.193Z,25.60
2018-06-15T08:04:22.580Z,25.90
2018-06-15T08:06:54.966Z,26.30
2018-06-15T08:09:27.670Z,27.10
2018-06-15T08:12:00.055Z,27.50
2018-06-15T08:14:32.674Z,27.10
2018-06-15T08:17:05.160Z,26.60
2018-06-15T08:19:37.903Z,26.10
2018-06-15T08:24:42.505Z,26.20
2018-06-15T08:27:15.137Z,26.20
2018-06-15T08:29:47.819Z,26.40
2018-06-15T08:32:20.515Z,26.40
2018-06-15T08:34:53.478Z,26.00
2018-06-15T08:37:26.321Z,25.40
2018-06-15T08:39:59.002Z,25.40
2018-06-15T08:42:31.385Z,26.20
2018-06-15T08:45:04.045Z,27.10
2018-06-15T08:47:36.449Z,27.60
2018-06-15T08:50:08.881Z,27.50
2018-06-15T08:52:41.352Z,26.80
2018-06-15T08:55:13.701Z,26.20
2018-06-15T08:57:46.185Z,25.60
2018-06-15T09:00:18.626Z,25.20
2018-06-15T09:02:51.012Z,24.80
2018-06-15T09:05:23.417Z,24.40
2018-06-15T09:07:55.809Z,24.20
2018-06-15T09:10:28.197Z,24.00
2018-06-15T09:15:33.468Z,23.60
2018-06-15T09:18:06.118Z,23.30
2018-06-15T09:20:38.515Z,23.00
2018-06-15T09:23:10.906Z,22.80
2018-06-15T09:25:43.353Z,22.70
2018-06-15T09:28:15.989Z,22.60
2018-06-15T09:30:48.408Z,22.60
2018-06-15T09:33:20.794Z,22.70
2018-06-15T09:35:53.195Z,22.90
2018-06-15T09:38:25.587Z,23.40
2018-06-15T09:40:57.992Z,24.60
2018-06-15T09:43:30.625Z,25.70
2018-06-15T09:46:03.328Z,26.80
2018-06-15T09:48:36.250Z,27.70
2018-06-15T09:51:09.093Z,28.60
2018-06-15T09:53:41.473Z,29.50
2018-06-15T09:56:13.918Z,29.80
2018-06-15T09:58:46.309Z,29.90
2018-06-15T10:01:19.006Z,29.10
2018-06-15T10:03:51.657Z,28.50
2018-06-15T10:06:24.062Z,28.00
2018-06-15T10:08:56.760Z,27.80
2018-06-15T10:11:29.385Z,27.30
2018-06-15T10:14:02.130Z,27.20
2018-06-15T10:16:34.603Z,27.60
2018-06-15T10:19:07.247Z,28.30
2018-06-15T10:21:39.901Z,28.80
2018-06-15T10:24:12.602Z,29.50
2018-06-15T10:26:44.981Z,30.10
2018-06-15T10:29:17.680Z,30.10
2018-06-15T10:31:50.065Z,29.70
2018-06-15T10:34:22.552Z,29.60
2018-06-15T10:36:55.268Z,29.30
2018-06-15T10:39:27.736Z,29.80
2018-06-15T10:42:00.410Z,30.30
2018-06-15T10:44:33.122Z,30.40
2018-06-15T10:47:05.505Z,30.10
2018-06-15T10:49:37.901Z,30.40
2018-06-15T10:52:10.926Z,30.70
2018-06-15T10:54:43.925Z,30.60
2018-06-15T10:57:16.630Z,30.30
2018-06-15T10:59:49.310Z,29.10
2018-06-15T11:02:22.084Z,28.50
2018-06-15T11:04:54.726Z,28.90
2018-06-15T11:07:27.114Z,29.40
2018-06-15T11:09:59.537Z,29.80
2018-06-15T11:12:31.906Z,30.30
2018-06-15T11:15:04.872Z,30.50
2018-06-15T11:17:37.283Z,30.20
2018-06-15T11:20:09.694Z,30.10
2018-06-15T11:22:42.090Z,29.80
2018-06-15T11:25:14.560Z,30.20
2018-06-15T11:27:46.969Z,30.50
2018-06-15T11:30:19.614Z,29.80
2018-06-15T11:32:52.242Z,28.90
2018-06-15T11:35:24.950Z,28.20
2018-06-15T11:37:57.613Z,28.30
2018-06-15T11:40:30.015Z,28.90
2018-06-15T11:43:02.699Z,29.50
2018-06-15T11:45:35.099Z,29.50
2018-06-15T11:48:07.486Z,29.40
2018-06-15T11:50:39.927Z,29.10
2018-06-15T11:53:12.599Z,28.70
2018-06-15T11:55:45.273Z,28.30
2018-06-15T11:58:17.903Z,27.90
2018-06-15T12:00:50.622Z,27.80
2018-06-15T12:03:23.018Z,27.80
2018-06-15T12:05:55.431Z,27.40
2018-06-15T12:08:27.826Z,27.20
2018-06-15T12:11:00.526Z,26.90
2018-06-15T12:13:32.946Z,26.70
2018-06-15T12:16:05.682Z,26.50
2018-06-15T12:18:38.298Z,26.30
2018-06-15T12:21:10.694Z,26.10
2018-06-15T12:23:43.097Z,26.00
2018-06-15T12:26:15.489Z,25.90
2018-06-15T12:28:48.185Z,26.00
2018-06-15T12:31:20.577Z,26.00
2018-06-15T12:33:52.979Z,26.00
2018-06-15T12:36:25.647Z,26.10
2018-06-15T12:38:58.310Z,26.20
2018-06-15T12:41:30.981Z,26.20
2018-06-15T12:44:03.674Z,26.30
2018-06-15T12:46:36.342Z,26.20
2018-06-15T12:49:08.761Z,26.30
2018-06-15T12:51:41.548Z,26.30
2018-06-15T12:54:13.954Z,26.20
2018-06-15T12:56:46.674Z,26.10
2018-06-15T12:59:19.760Z,25.90
2018-06-15T13:01:52.174Z,25.80
2018-06-15T13:04:24.610Z,25.60
2018-06-15T13:06:57.020Z,25.60
2018-06-15T13:09:29.647Z,25.50
2018-06-15T13:12:02.357Z,25.50
2018-06-15T13:14:34.754Z,25.60
2018-06-15T13:17:07.154Z,25.60
2018-06-15T13:19:39.609Z,25.60
2018-06-15T13:22:12.561Z,25.60
2018-06-15T13:24:45.036Z,25.60
2018-06-15T13:27:17.918Z,25.70
2018-06-15T13:29:50.573Z,25.70
2018-06-15T13:32:22.977Z,25.80
2018-06-15T13:34:55.718Z,25.90
2018-06-15T13:37:28.738Z,25.90
2018-06-15T13:40:01.126Z,25.90
2018-06-15T13:42:33.849Z,26.00
2018-06-15T13:45:06.527Z,26.10
2018-06-15T13:47:38.945Z,26.30
2018-06-15T13:50:11.350Z,26.40
2018-06-15T13:52:43.754Z,26.50
2018-06-15T13:55:16.430Z,26.70
2018-06-15T13:57:48.850Z,26.90
2018-06-15T14:00:21.320Z,26.90
2018-06-15T14:02:53.670Z,26.90
2018-06-15T14:05:26.309Z,26.90
2018-06-15T14:07:59.004Z,26.80
2018-06-15T14:10:31.513Z,26.70
2018-06-15T14:15:36.522Z,26.50
2018-06-15T14:18:08.938Z,26.50
2018-06-15T14:20:41.345Z,26.50
2018-06-15T14:23:13.745Z,26.40
2018-06-15T14:25:46.213Z,26.30
2018-06-15T14:28:18.628Z,26.30
2018-06-15T14:30:51.594Z,26.20
2018-06-15T14:33:24.022Z,26.20
2018-06-15T14:35:56.710Z,26.10
2018-06-15T14:38:29.341Z,26.10
2018-06-15T14:41:01.737Z,26.00
2018-06-15T14:43:34.174Z,26.00
2018-06-15T14:46:06.582Z,26.20
2018-06-15T14:48:39.040Z,26.30
2018-06-15T14:51:11.434Z,26.50
2018-06-15T14:53:43.817Z,26.50
2018-06-15T14:56:16.237Z,26.80
2018-06-15T15:01:20.889Z,26.90
2018-06-15T15:03:53.774Z,27.00
2018-06-15T15:06:26.505Z,26.90
2018-06-15T15:08:58.919Z,26.80
2018-06-15T15:14:03.542Z,26.70
2018-06-15T15:16:35.932Z,26.60
2018-06-15T15:19:08.395Z,26.50
2018-06-15T15:21:41.029Z,26.40
2018-06-15T15:24:13.419Z,26.40
2018-06-15T15:26:46.352Z,26.40
2018-06-15T15:29:18.741Z,26.40
2018-06-15T15:31:51.120Z,26.50
2018-06-15T15:34:23.515Z,26.50
2018-06-15T15:36:55.963Z,26.50
2018-06-15T15:39:28.366Z,26.40
2018-06-15T15:42:01.053Z,26.30
2018-06-15T15:44:33.561Z,26.20
2018-06-15T15:47:05.942Z,26.10
2018-06-15T15:49:38.441Z,26.10
2018-06-15T15:52:11.130Z,26.00
2018-06-15T15:54:43.549Z,25.80
2018-06-15T15:57:15.938Z,25.80
2018-06-15T15:59:48.346Z,25.80
2018-06-15T16:02:21.065Z,25.80
2018-06-15T16:04:53.763Z,25.80
2018-06-15T16:07:26.169Z,25.80
2018-06-15T16:09:58.889Z,25.80
2018-06-15T16:12:31.593Z,25.70
2018-06-15T16:15:03.977Z,25.50
2018-06-15T16:17:36.370Z,25.40
2018-06-15T16:20:08.834Z,25.30
2018-06-15T16:22:41.183Z,25.20
2018-06-15T16:25:13.558Z,25.20
2018-06-15T16:27:45.977Z,25.30
2018-06-15T16:30:18.609Z,25.40
2018-06-15T16:32:51.282Z,25.60
2018-06-15T16:35:23.961Z,25.60
2018-06-15T16:37:56.362Z,25.70
2018-06-15T16:40:28.760Z,25.70
2018-06-15T16:43:01.193Z,25.70
2018-06-15T16:45:33.574Z,25.70
2018-06-15T16:48:05.961Z,25.70
2018-06-15T16:50:38.379Z,25.70
2018-06-15T16:53:10.792Z,25.70
2018-06-15T16:55:43.196Z,25.60
2018-06-15T16:58:15.897Z,25.60
2018-06-15T17:00:48.306Z,25.60
2018-06-15T17:03:21.366Z,25.70
2018-06-15T17:05:54.030Z,25.80
2018-06-15T17:08:26.709Z,25.80
2018-06-15T17:10:59.212Z,25.70
2018-06-15T17:13:31.610Z,25.60
2018-06-15T17:16:04.320Z,25.40
2018-06-15T17:18:37.053Z,25.40
2018-06-15T17:21:09.414Z,25.40
2018-06-15T17:23:42.094Z,25.30
2018-06-15T17:26:14.774Z,25.20
2018-06-15T17:28:47.442Z,25.20
2018-06-15T17:31:20.192Z,25.20
2018-06-15T17:33:52.568Z,25.10
2018-06-15T17:36:24.965Z,25.00
2018-06-15T17:41:29.719Z,24.90
2018-06-15T17:44:02.121Z,24.80
2018-06-15T17:46:34.874Z,24.70
2018-06-15T17:49:07.695Z,24.70
2018-06-15T17:51:40.055Z,24.60
2018-06-15T17:54:12.457Z,24.50
2018-06-15T17:56:44.861Z,24.30
2018-06-15T17:59:17.267Z,24.20
2018-06-15T18:01:49.906Z,24.20
2018-06-15T18:06:55.147Z,24.20
2018-06-15T18:09:27.845Z,24.20
2018-06-15T18:12:00.264Z,24.10
2018-06-15T18:14:32.915Z,24.10
2018-06-15T18:17:05.303Z,24.00
2018-06-15T18:19:37.989Z,23.90
2018-06-15T18:22:10.378Z,23.80
2018-06-15T18:24:43.036Z,23.70
2018-06-15T18:27:15.445Z,23.60
2018-06-15T18:29:48.158Z,23.50
2018-06-15T18:32:20.801Z,23.40
2018-06-15T18:34:53.493Z,23.40
2018-06-15T18:37:25.886Z,23.30
2018-06-15T18:39:58.566Z,23.20
2018-06-15T18:42:30.971Z,23.20
2018-06-15T18:45:03.383Z,23.10
2018-06-15T18:47:35.818Z,23.10
2018-06-15T18:50:08.263Z,23.10
2018-06-15T18:52:40.643Z,23.00
2018-06-15T18:55:13.070Z,22.90
2018-06-15T18:57:45.454Z,22.90
2018-06-15T19:00:18.160Z,22.90
2018-06-15T19:02:50.548Z,22.90
2018-06-15T19:05:22.961Z,22.90
2018-06-15T19:07:55.370Z,22.90
2018-06-15T19:10:28.029Z,22.80
2018-06-15T19:13:00.698Z,22.80
2018-06-15T19:15:33.410Z,22.80
2018-06-15T19:18:05.866Z,22.80
2018-06-15T19:20:38.541Z,22.70
2018-06-15T19:23:11.241Z,22.70
2018-06-15T19:25:43.906Z,22.70
2018-06-15T19:30:48.971Z,22.70
2018-06-15T19:33:21.357Z,22.60
2018-06-15T19:35:53.855Z,22.60
2018-06-15T19:38:26.251Z,22.50
2018-06-15T19:40:58.673Z,22.50
2018-06-15T19:43:31.140Z,22.40
2018-06-15T19:46:03.705Z,22.40
2018-06-15T19:48:36.113Z,22.30
2018-06-15T19:51:08.524Z,22.30
2018-06-15T19:53:40.926Z,22.20
2018-06-15T19:56:13.326Z,22.20
2018-06-15T19:58:45.705Z,22.10
2018-06-15T20:01:18.332Z,22.10
2018-06-15T20:03:50.997Z,22.00
2018-06-15T20:06:23.405Z,22.00
2018-06-15T20:08:56.180Z,22.00
2018-06-15T20:11:28.840Z,22.00
2018-06-15T20:14:02.056Z,21.90
2018-06-15T20:16:34.470Z,21.90
2018-06-15T20:19:07.210Z,21.90
2018-06-15T20:21:39.952Z,21.90
2018-06-15T20:24:12.341Z,21.80
2018-06-15T20:26:44.744Z,21.80
2018-06-15T20:29:17.438Z,21.80
2018-06-15T20:31:50.558Z,21.70
2018-06-15T20:34:22.986Z,21.60
2018-06-15T20:36:55.479Z,21.60
2018-06-15T20:39:27.873Z,21.50
2018-06-15T20:42:00.489Z,21.50
2018-06-15T20:44:32.878Z,21.40
2018-06-15T20:47:05.543Z,21.40
2018-06-15T20:49:37.986Z,21.30
2018-06-15T20:52:10.394Z,21.20
2018-06-15T20:54:42.794Z,21.20
2018-06-15T20:57:15.250Z,21.20
2018-06-15T20:59:48.017Z,21.20
2018-06-15T21:02:20.450Z,21.20
2018-06-15T21:04:52.847Z,21.10
2018-06-15T21:07:25.335Z,21.10
2018-06-15T21:09:57.826Z,21.00
2018-06-15T21:12:30.356Z,21.00
2018-06-15T21:15:02.847Z,21.00
2018-06-15T21:17:35.438Z,20.90
2018-06-15T21:20:07.870Z,20.90
2018-06-15T21:22:40.318Z,20.80
2018-06-15T21:25:12.709Z,20.80
2018-06-15T21:27:45.409Z,20.80
2018-06-15T21:30:18.074Z,20.80
2018-06-15T21:32:50.762Z,20.80
2018-06-15T21:35:23.177Z,20.80
2018-06-15T21:37:55.917Z,20.70
2018-06-15T21:40:28.604Z,20.70
2018-06-15T21:43:01.026Z,20.70
2018-06-15T21:45:33.673Z,20.70
2018-06-15T21:48:06.335Z,20.60
2018-06-15T21:50:39.346Z,20.60
2018-06-15T21:53:11.746Z,20.50
2018-06-15T21:55:44.694Z,20.50
2018-06-15T21:58:17.334Z,20.50
2018-06-15T22:00:50.039Z,20.40
2018-06-15T22:03:22.526Z,20.30
2018-06-15T22:05:55.218Z,20.30
2018-06-15T22:08:27.726Z,20.20
2018-06-15T22:11:00.141Z,20.20
2018-06-15T22:13:32.833Z,20.20
2018-06-15T22:16:05.234Z,20.20
2018-06-15T22:18:37.625Z,20.20
2018-06-15T22:21:10.334Z,20.20
2018-06-15T22:23:43.001Z,20.20
2018-06-15T22:26:15.684Z,20.10
2018-06-15T22:28:48.094Z,20.10
2018-06-15T22:31:20.530Z,20.10
2018-06-15T22:33:52.930Z,20.10
2018-06-15T22:36:25.358Z,20.10
2018-06-15T22:38:57.751Z,20.10
2018-06-15T22:41:30.459Z,20.10
2018-06-15T22:44:02.898Z,20.10
2018-06-15T22:46:35.577Z,20.10
2018-06-15T22:49:08.217Z,20.10
2018-06-15T22:51:40.621Z,20.10
2018-06-15T22:54:13.133Z,20.10
2018-06-15T22:56:45.550Z,20.10
2018-06-15T22:59:18.495Z,20.20
2018-06-15T23:01:51.154Z,20.20
2018-06-15T23:04:23.857Z,20.20
2018-06-15T23:06:56.673Z,20.20
2018-06-15T23:09:29.678Z,20.10
2018-06-15T23:12:02.118Z,20.10
2018-06-15T23:14:34.563Z,20.10
2018-06-15T23:17:06.934Z,20.10
2018-06-15T23:19:39.582Z,20.00
2018-06-15T23:22:12.270Z,20.00
2018-06-15T23:24:44.925Z,19.90
2018-06-15T23:27:17.697Z,19.90
2018-06-15T23:29:50.138Z,19.80
2018-06-15T23:32:22.543Z,19.80
2018-06-15T23:34:54.963Z,19.70
2018-06-15T23:37:27.371Z,19.70
2018-06-15T23:39:59.762Z,19.70
2018-06-15T23:42:32.200Z,19.60
2018-06-15T23:45:04.829Z,19.60
2018-06-15T23:47:37.550Z,19.50
2018-06-15T23:50:09.978Z,19.40
2018-06-15T23:52:42.397Z,19.30
2018-06-15T23:55:14.786Z,19.30
2018-06-15T23:57:47.202Z,19.20
